createdAt,value
2017-12-12T00:00:36.743Z,977.61
2017-12-12T00:01:17.287Z,977.67
2017-12-12T00:01:57.799Z,977.72
2017-12-12T00:02:38.396Z,977.74
2017-12-12T00:03:18.990Z,977.81
2017-12-12T00:03:59.475Z,977.79
2017-12-12T00:04:40.080Z,977.78
2017-12-12T00:05:20.597Z,977.85
2017-12-12T00:06:01.165Z,977.86
2017-12-12T00:06:41.925Z,977.85
2017-12-12T00:07:22.492Z,977.94
2017-12-12T00:08:03.138Z,977.94
2017-12-12T00:08:43.781Z,977.98
2017-12-12T00:09:24.271Z,978.02
2017-12-12T00:10:04.834Z,978.01
2017-12-12T00:10:45.396Z,978.09
2017-12-12T00:11:29.721Z,978.07
2017-12-12T00:12:10.540Z,978.14
2017-12-12T00:12:50.997Z,978.15
2017-12-12T00:13:31.544Z,978.19
2017-12-12T00:14:15.593Z,978.26
2017-12-12T00:14:56.142Z,978.15
2017-12-12T00:15:36.806Z,978.23
2017-12-12T00:16:17.301Z,978.21
2017-12-12T00:16:57.809Z,978.24
2017-12-12T00:17:38.420Z,978.22
2017-12-12T00:18:18.935Z,978.26
2017-12-12T00:19:03.050Z,978.3
2017-12-12T00:19:43.542Z,978.29
2017-12-12T00:20:24.189Z,978.2
2017-12-12T00:21:04.745Z,978.28
2017-12-12T00:21:45.344Z,978.34
2017-12-12T00:22:25.908Z,978.3
2017-12-12T00:23:06.503Z,978.35
2017-12-12T00:23:47.104Z,978.41
2017-12-12T00:24:27.751Z,978.41
2017-12-12T00:25:09.253Z,978.41
2017-12-12T00:25:48.890Z,978.5
2017-12-12T00:26:29.426Z,978.42
2017-12-12T00:27:09.989Z,978.54
2017-12-12T00:27:50.692Z,978.55
2017-12-12T00:28:31.169Z,978.61
2017-12-12T00:29:11.784Z,978.63
2017-12-12T00:29:52.268Z,978.62
2017-12-12T00:30:32.808Z,978.65
2017-12-12T00:31:13.404Z,978.6
2017-12-12T00:31:53.946Z,978.77
2017-12-12T00:32:34.460Z,978.75
2017-12-12T00:33:14.992Z,978.76
2017-12-12T00:33:57.291Z,978.78
2017-12-12T00:34:40.096Z,978.81
2017-12-12T00:35:20.752Z,978.95
2017-12-12T00:36:01.834Z,978.92
2017-12-12T00:36:45.475Z,979.01
2017-12-12T00:37:26.005Z,979
2017-12-12T00:38:06.687Z,979.04
2017-12-12T00:38:47.179Z,979.05
2017-12-12T00:39:27.864Z,979.06
2017-12-12T00:40:12.248Z,979.1
2017-12-12T00:40:53.073Z,979.15
2017-12-12T00:41:33.642Z,979.16
2017-12-12T00:42:14.207Z,979.11
2017-12-12T00:42:54.720Z,979.15
2017-12-12T00:43:35.346Z,979.09
2017-12-12T00:44:15.836Z,979.19
2017-12-12T00:44:56.432Z,979.18
2017-12-12T00:45:37.019Z,979.17
2017-12-12T00:46:17.631Z,979.24
2017-12-12T00:46:58.107Z,979.28
2017-12-12T00:47:38.793Z,979.27
2017-12-12T00:48:19.751Z,979.31
2017-12-12T00:49:00.144Z,979.37
2017-12-12T00:49:40.694Z,979.28
2017-12-12T00:50:21.308Z,979.39
2017-12-12T00:51:01.946Z,979.37
2017-12-12T00:51:42.679Z,979.41
2017-12-12T00:52:26.718Z,979.43
2017-12-12T00:53:08.746Z,979.44
2017-12-12T00:53:52.728Z,979.5
2017-12-12T00:54:33.303Z,979.52
2017-12-12T00:55:17.707Z,979.56
2017-12-12T00:55:58.395Z,979.55
2017-12-12T00:56:38.933Z,979.56
2017-12-12T00:57:19.567Z,979.58
2017-12-12T00:58:00.171Z,979.6
2017-12-12T00:58:40.803Z,979.66
2017-12-12T00:59:21.375Z,979.71
2017-12-12T01:00:01.979Z,979.69
2017-12-12T01:00:42.499Z,979.71
2017-12-12T01:01:23.032Z,979.8
2017-12-12T01:02:03.657Z,979.79
2017-12-12T01:02:44.273Z,979.88
2017-12-12T01:03:24.888Z,979.87
2017-12-12T01:04:05.376Z,979.89
2017-12-12T01:04:45.930Z,979.87
2017-12-12T01:05:26.487Z,979.9
2017-12-12T01:06:07.057Z,980
2017-12-12T01:06:47.608Z,979.96
2017-12-12T01:07:29.303Z,979.96
2017-12-12T01:08:10.485Z,980.09
2017-12-12T01:08:53.074Z,980.04
2017-12-12T01:09:33.665Z,980.03
2017-12-12T01:10:14.244Z,980.16
2017-12-12T01:10:56.957Z,980.06
2017-12-12T01:11:38.493Z,980.15
2017-12-12T01:12:18.995Z,980.25
2017-12-12T01:12:59.605Z,980.27
2017-12-12T01:13:40.260Z,980.32
2017-12-12T01:14:22.273Z,980.27
2017-12-12T01:15:02.387Z,980.32
2017-12-12T01:15:42.967Z,980.3
2017-12-12T01:16:26.210Z,980.34
2017-12-12T01:17:05.950Z,980.41
2017-12-12T01:17:46.485Z,980.12
2017-12-12T01:18:26.982Z,980.43
2017-12-12T01:19:07.444Z,980.41
2017-12-12T01:19:47.966Z,980.41
2017-12-12T01:20:28.535Z,980.36
2017-12-12T01:21:09.081Z,980.37
2017-12-12T01:21:49.601Z,980.32
2017-12-12T01:22:30.133Z,980.33
2017-12-12T01:23:10.753Z,980.3
2017-12-12T01:23:51.286Z,980.42
2017-12-12T01:24:31.881Z,980.52
2017-12-12T01:25:12.383Z,980.51
2017-12-12T01:25:53.025Z,980.52
2017-12-12T01:26:33.600Z,980.6
2017-12-12T01:27:14.153Z,980.65
2017-12-12T01:27:54.636Z,980.65
2017-12-12T01:28:35.328Z,980.76
2017-12-12T01:29:15.815Z,980.71
2017-12-12T01:29:56.447Z,980.66
2017-12-12T01:30:40.670Z,980.93
2017-12-12T01:31:21.161Z,980.84
2017-12-12T01:32:01.808Z,980.9
2017-12-12T01:32:44.007Z,981.01
2017-12-12T01:33:24.570Z,980.96
2017-12-12T01:34:07.008Z,981.02
2017-12-12T01:34:47.579Z,981.11
2017-12-12T01:35:28.133Z,981.07
2017-12-12T01:36:08.629Z,981.02
2017-12-12T01:36:49.229Z,981.18
2017-12-12T01:37:33.139Z,981.25
2017-12-12T01:38:13.727Z,981.28
2017-12-12T01:38:54.345Z,981.24
2017-12-12T01:39:34.903Z,981.17
2017-12-12T01:40:15.432Z,981.34
2017-12-12T01:40:56.006Z,981.4
2017-12-12T01:41:36.523Z,981.43
2017-12-12T01:42:17.076Z,981.43
2017-12-12T01:42:57.695Z,981.5
2017-12-12T01:43:38.307Z,981.59
2017-12-12T01:44:18.838Z,981.47
2017-12-12T01:44:59.431Z,981.53
2017-12-12T01:45:40.085Z,981.54
2017-12-12T01:46:20.637Z,981.55
2017-12-12T01:47:01.153Z,981.63
2017-12-12T01:47:41.777Z,981.73
2017-12-12T01:48:22.258Z,981.65
2017-12-12T01:49:02.793Z,981.78
2017-12-12T01:49:43.359Z,981.69
2017-12-12T01:50:23.958Z,981.67
2017-12-12T01:51:04.604Z,981.71
2017-12-12T01:51:48.658Z,981.86
2017-12-12T01:52:29.160Z,981.79
2017-12-12T01:53:09.841Z,981.81
2017-12-12T01:53:50.344Z,981.88
2017-12-12T01:54:30.831Z,981.98
2017-12-12T01:55:14.072Z,981.97
2017-12-12T01:55:55.258Z,981.89
2017-12-12T01:56:35.820Z,982.06
2017-12-12T01:57:16.376Z,981.99
2017-12-12T01:57:56.934Z,982.1
2017-12-12T01:58:39.059Z,982.02
2017-12-12T01:59:19.501Z,982.1
2017-12-12T02:00:00.029Z,982.16
2017-12-12T02:00:42.214Z,981.84
2017-12-12T02:01:22.708Z,982.21
2017-12-12T02:02:03.240Z,982.18
2017-12-12T02:02:43.882Z,982.2
2017-12-12T02:03:24.437Z,982.16
2017-12-12T02:04:04.896Z,982.24
2017-12-12T02:04:45.526Z,982.31
2017-12-12T02:05:25.971Z,982.34
2017-12-12T02:06:06.564Z,982.37
2017-12-12T02:06:47.025Z,982.26
2017-12-12T02:07:27.674Z,982.3
2017-12-12T02:08:08.154Z,982.39
2017-12-12T02:08:48.673Z,982.49
2017-12-12T02:09:29.240Z,982.46
2017-12-12T02:10:09.796Z,982.5
2017-12-12T02:10:50.332Z,982.67
2017-12-12T02:11:30.898Z,982.62
2017-12-12T02:12:11.475Z,982.68
2017-12-12T02:12:51.965Z,982.57
2017-12-12T02:13:32.547Z,982.7
2017-12-12T02:14:13.129Z,982.69
2017-12-12T02:14:53.572Z,982.76
2017-12-12T02:15:34.079Z,982.86
2017-12-12T02:16:14.740Z,982.63
2017-12-12T02:16:55.165Z,982.84
2017-12-12T02:17:35.815Z,982.75
2017-12-12T02:18:19.718Z,982.98
2017-12-12T02:19:00.202Z,982.99
2017-12-12T02:19:40.726Z,982.99
2017-12-12T02:20:21.449Z,982.96
2017-12-12T02:21:02.017Z,983.05
2017-12-12T02:21:42.474Z,983.13
2017-12-12T02:22:25.579Z,983.14
2017-12-12T02:23:07.442Z,983.23
2017-12-12T02:23:47.863Z,983.21
2017-12-12T02:24:28.400Z,983.27
2017-12-12T02:25:09.085Z,983.29
2017-12-12T02:25:53.174Z,983.23
2017-12-12T02:26:33.709Z,983.31
2017-12-12T02:27:14.382Z,983.43
2017-12-12T02:27:54.978Z,983.45
2017-12-12T02:28:35.490Z,983.4
2017-12-12T02:29:15.942Z,983.58
2017-12-12T02:29:56.567Z,983.53
2017-12-12T02:30:37.087Z,983.56
2017-12-12T02:31:17.686Z,983.59
2017-12-12T02:31:58.284Z,983.55
2017-12-12T02:32:38.825Z,983.67
2017-12-12T02:33:19.402Z,983.59
2017-12-12T02:33:59.898Z,983.65
2017-12-12T02:34:40.422Z,983.8
2017-12-12T02:35:20.949Z,983.77
2017-12-12T02:36:01.519Z,983.86
2017-12-12T02:36:42.020Z,983.83
2017-12-12T02:37:22.538Z,983.85
2017-12-12T02:38:03.097Z,983.8
2017-12-12T02:38:43.608Z,983.86
2017-12-12T02:39:24.233Z,983.91
2017-12-12T02:40:04.858Z,983.97
2017-12-12T02:40:45.349Z,984
2017-12-12T02:41:25.979Z,984
2017-12-12T02:42:06.518Z,984.03
2017-12-12T02:42:47.094Z,984.1
2017-12-12T02:43:27.700Z,984.15
2017-12-12T02:44:09.331Z,984.15
2017-12-12T02:44:49.881Z,984.22
2017-12-12T02:45:32.623Z,984.19
2017-12-12T02:46:13.234Z,984.26
2017-12-12T02:46:53.806Z,984.25
2017-12-12T02:47:34.347Z,984.24
2017-12-12T02:48:14.977Z,984.26
2017-12-12T02:48:55.523Z,984.32
2017-12-12T02:49:38.279Z,984.41
2017-12-12T02:50:19.940Z,984.36
2017-12-12T02:51:00.529Z,984.47
2017-12-12T02:51:41.083Z,984.39
2017-12-12T02:52:21.570Z,984.54
2017-12-12T02:53:02.086Z,984.54
2017-12-12T02:53:42.600Z,984.49
2017-12-12T02:54:23.140Z,984.57
2017-12-12T02:55:03.783Z,984.59
2017-12-12T02:55:44.282Z,984.6
2017-12-12T02:56:24.795Z,984.67
2017-12-12T02:57:09.317Z,984.7
2017-12-12T02:57:49.817Z,984.68
2017-12-12T02:58:32.310Z,984.72
2017-12-12T02:59:12.913Z,984.69
2017-12-12T02:59:53.458Z,984.74
2017-12-12T03:00:33.944Z,984.79
2017-12-12T03:01:14.497Z,984.82
2017-12-12T03:01:55.109Z,984.76
2017-12-12T03:02:35.596Z,984.83
2017-12-12T03:03:16.123Z,984.91
2017-12-12T03:03:56.720Z,984.78
2017-12-12T03:04:37.298Z,984.89
2017-12-12T03:05:17.818Z,984.9
2017-12-12T03:05:58.337Z,985.01
2017-12-12T03:06:42.467Z,984.96
2017-12-12T03:07:23.079Z,984.96
2017-12-12T03:08:03.631Z,984.95
2017-12-12T03:08:44.114Z,985.05
2017-12-12T03:09:28.374Z,985.05
2017-12-12T03:10:08.901Z,985.08
2017-12-12T03:10:49.493Z,985.02
2017-12-12T03:11:30.077Z,985.14
2017-12-12T03:12:14.228Z,985.17
2017-12-12T03:12:54.568Z,985.22
2017-12-12T03:13:35.107Z,985.23
2017-12-12T03:14:15.604Z,985.25
2017-12-12T03:14:56.208Z,985.29
2017-12-12T03:15:36.809Z,985.4
2017-12-12T03:16:17.305Z,985.33
2017-12-12T03:16:57.830Z,985.3
2017-12-12T03:17:38.806Z,985.38
2017-12-12T03:18:19.353Z,985.35
2017-12-12T03:19:00.118Z,985.46
2017-12-12T03:19:40.547Z,985.44
2017-12-12T03:20:21.277Z,985.49
2017-12-12T03:21:01.731Z,985.51
2017-12-12T03:21:42.258Z,985.58
2017-12-12T03:22:22.855Z,985.59
2017-12-12T03:23:03.352Z,985.63
2017-12-12T03:23:43.934Z,985.68
2017-12-12T03:24:24.506Z,985.36
2017-12-12T03:25:05.012Z,985.58
2017-12-12T03:25:49.188Z,985.76
2017-12-12T03:26:29.915Z,985.71
2017-12-12T03:27:10.568Z,985.74
2017-12-12T03:27:51.216Z,985.76
2017-12-12T03:28:35.222Z,985.76
2017-12-12T03:29:15.891Z,985.79
2017-12-12T03:29:56.424Z,985.84
2017-12-12T03:30:37.038Z,985.83
2017-12-12T03:31:21.024Z,985.9
2017-12-12T03:32:01.812Z,985.88
2017-12-12T03:32:42.254Z,985.9
2017-12-12T03:33:22.793Z,985.94
2017-12-12T03:34:03.464Z,985.94
2017-12-12T03:34:43.945Z,985.93
2017-12-12T03:35:24.487Z,986.01
2017-12-12T03:36:05.135Z,985.96
2017-12-12T03:36:45.726Z,986.03
2017-12-12T03:37:26.134Z,986.08
2017-12-12T03:38:06.752Z,986.07
2017-12-12T03:38:47.314Z,986.1
2017-12-12T03:39:27.797Z,986.09
2017-12-12T03:40:08.379Z,986.1
2017-12-12T03:40:48.875Z,986.13
2017-12-12T03:41:29.528Z,986.18
2017-12-12T03:42:09.987Z,986.12
2017-12-12T03:42:50.540Z,986.15
2017-12-12T03:43:31.029Z,986.31
2017-12-12T03:44:11.530Z,986.32
2017-12-12T03:44:52.051Z,986.3
2017-12-12T03:45:36.128Z,986.33
2017-12-12T03:46:16.712Z,986.3
2017-12-12T03:46:57.231Z,986.37
2017-12-12T03:47:37.874Z,986.3
2017-12-12T03:48:18.396Z,986.45
2017-12-12T03:49:02.538Z,986.49
2017-12-12T03:49:43.234Z,986.51
2017-12-12T03:50:23.795Z,986.46
2017-12-12T03:51:04.428Z,986.65
2017-12-12T03:51:44.959Z,986.5
2017-12-12T03:52:29.036Z,986.67
2017-12-12T03:53:09.567Z,986.62
2017-12-12T03:53:50.115Z,986.64
2017-12-12T03:54:30.705Z,986.63
2017-12-12T03:55:11.196Z,986.64
2017-12-12T03:55:51.676Z,986.65
2017-12-12T03:56:32.237Z,986.66
2017-12-12T03:57:12.898Z,986.69
2017-12-12T03:59:38.481Z,986.78
2017-12-12T04:00:22.416Z,986.83
2017-12-12T04:01:06.189Z,986.85
2017-12-12T04:01:46.989Z,986.87
2017-12-12T04:43:18.569Z,988.66
2017-12-12T04:44:02.874Z,988.63
2017-12-12T04:44:43.897Z,988.67
2017-12-12T04:45:24.380Z,988.8
2017-12-12T04:46:06.017Z,988.85
2017-12-12T04:46:47.097Z,988.83
2017-12-12T04:47:27.637Z,988.87
2017-12-12T04:48:08.585Z,988.82
2017-12-12T04:48:48.848Z,988.92
2017-12-12T04:49:29.480Z,988.88
2017-12-12T04:50:10.398Z,988.94
2017-12-12T04:50:51.057Z,989.05
2017-12-12T04:51:32.736Z,988.94
2017-12-12T04:52:13.293Z,989.04
2017-12-12T04:52:53.576Z,988.99
2017-12-12T04:53:34.334Z,988.97
2017-12-12T04:54:15.151Z,988.99
2017-12-12T04:54:55.583Z,989.03
2017-12-12T04:55:36.126Z,989.04
2017-12-12T04:56:17.321Z,989.01
2017-12-12T04:56:57.479Z,989.05
2017-12-12T04:57:37.929Z,989.13
2017-12-12T04:58:18.362Z,989.18
2017-12-12T04:58:59.685Z,989.2
2017-12-12T04:59:40.354Z,989.15
2017-12-12T05:00:20.636Z,989.29
2017-12-12T05:01:01.070Z,989.24
2017-12-12T05:01:43.066Z,989.29
2017-12-12T05:02:23.600Z,989.3
2017-12-12T05:03:04.030Z,989.35
2017-12-12T05:03:44.722Z,989.36
2017-12-12T05:04:25.268Z,989.42
2017-12-12T05:05:06.157Z,989.43
2017-12-12T05:05:47.295Z,989.36
2017-12-12T05:06:27.890Z,989.46
2017-12-12T05:07:08.237Z,989.45
2017-12-12T05:07:49.158Z,989.47
2017-12-12T05:08:29.628Z,989.48
2017-12-12T05:09:10.480Z,989.51
2017-12-12T05:09:51.170Z,989.58
2017-12-12T05:10:31.296Z,989.47
2017-12-12T05:11:11.919Z,989.65
2017-12-12T05:11:52.738Z,989.58
2017-12-12T05:12:32.567Z,989.67
2017-12-12T05:13:13.190Z,989.67
2017-12-12T05:13:54.027Z,989.67
2017-12-12T05:14:36.644Z,989.68
2017-12-12T05:15:17.562Z,989.76
2017-12-12T05:15:57.929Z,989.75
2017-12-12T05:16:38.685Z,989.81
2017-12-12T05:17:19.289Z,989.8
2017-12-12T05:18:00.074Z,989.84
2017-12-12T05:18:41.197Z,989.83
2017-12-12T05:19:22.117Z,989.86
2017-12-12T05:20:03.069Z,989.82
2017-12-12T05:20:43.465Z,989.91
2017-12-12T05:21:24.093Z,989.95
2017-12-12T05:22:06.338Z,990.02
2017-12-12T05:22:46.177Z,990
2017-12-12T05:23:27.669Z,990.03
2017-12-12T05:24:08.693Z,990.03
2017-12-12T05:24:49.150Z,990.08
2017-12-12T05:25:30.077Z,990.1
2017-12-12T05:29:23.962Z,990.11
2017-12-12T05:30:12.708Z,990.15
2017-12-12T05:32:14.263Z,990.16
2017-12-12T05:32:53.775Z,990.17
2017-12-12T05:33:34.179Z,990.3
2017-12-12T05:34:14.759Z,990.22
2017-12-12T05:34:55.175Z,990.25
2017-12-12T05:35:36.330Z,990.28
2017-12-12T05:36:17.928Z,990.32
2017-12-12T05:36:58.138Z,990.28
2017-12-12T05:37:39.026Z,990.33
2017-12-12T05:38:20.035Z,990.33
2017-12-12T05:38:59.864Z,990.42
2017-12-12T05:39:40.208Z,990.47
2017-12-12T05:40:20.849Z,990.43
2017-12-12T05:41:01.173Z,990.48
2017-12-12T05:41:41.585Z,990.47
2017-12-12T05:42:22.002Z,990.56
2017-12-12T05:43:03.784Z,990.63
2017-12-12T05:43:44.180Z,990.64
2017-12-12T05:44:25.482Z,990.67
2017-12-12T05:45:06.378Z,990.67
2017-12-12T05:45:47.010Z,990.72
2017-12-12T05:46:27.276Z,990.65
2017-12-12T05:47:07.597Z,990.71
2017-12-12T05:47:48.233Z,990.69
2017-12-12T05:48:29.368Z,990.67
2017-12-12T05:49:10.814Z,990.72
2017-12-12T05:49:51.311Z,990.73
2017-12-12T05:50:31.829Z,990.78
2017-12-12T05:51:15.810Z,990.81
2017-12-12T05:51:53.535Z,990.8
2017-12-12T05:52:34.602Z,990.85
2017-12-12T05:53:15.003Z,990.84
2017-12-12T05:53:55.802Z,990.95
2017-12-12T05:54:36.062Z,990.9
2017-12-12T05:55:16.753Z,990.93
2017-12-12T05:55:57.026Z,990.93
2017-12-12T05:56:37.747Z,990.87
2017-12-12T05:57:18.478Z,990.84
2017-12-12T05:58:00.317Z,990.94
2017-12-12T05:58:40.880Z,990.93
2017-12-12T05:59:21.400Z,991.05
2017-12-12T06:00:02.091Z,990.94
2017-12-12T06:00:42.990Z,990.87
2017-12-12T06:01:23.515Z,990.97
2017-12-12T06:02:03.896Z,990.96
2017-12-12T06:02:44.379Z,991.07
2017-12-12T06:03:25.279Z,991.07
2017-12-12T06:04:05.742Z,991.08
2017-12-12T06:04:46.294Z,991.1
2017-12-12T06:05:26.630Z,991.15
2017-12-12T06:06:07.578Z,991.2
2017-12-12T06:06:47.628Z,991.22
2017-12-12T06:07:28.032Z,991.26
2017-12-12T06:08:08.499Z,991.22
2017-12-12T06:08:49.730Z,991.28
2017-12-12T06:09:30.802Z,991.3
2017-12-12T06:10:11.380Z,991.33
2017-12-12T06:10:51.801Z,991.29
2017-12-12T06:15:01.452Z,991.45
2017-12-12T06:15:55.277Z,991.49
2017-12-12T06:18:15.846Z,991.61
2017-12-12T06:18:56.775Z,991.58
2017-12-12T06:19:37.862Z,991.66
2017-12-12T06:20:18.378Z,991.71
2017-12-12T06:20:58.776Z,991.65
2017-12-12T06:21:41.157Z,991.49
2017-12-12T06:22:21.458Z,991.66
2017-12-12T06:23:02.148Z,991.77
2017-12-12T06:23:42.891Z,991.76
2017-12-12T06:24:23.972Z,991.64
2017-12-12T06:25:04.230Z,991.8
2017-12-12T06:25:45.769Z,991.78
2017-12-12T06:26:27.316Z,991.89
2017-12-12T06:27:07.687Z,991.86
2017-12-12T06:27:48.746Z,991.85
2017-12-12T06:28:29.811Z,991.93
2017-12-12T06:29:11.665Z,991.96
2017-12-12T06:29:52.517Z,991.91
2017-12-12T06:30:32.880Z,991.96
2017-12-12T06:31:13.359Z,992.02
2017-12-12T06:31:54.363Z,992.07
2017-12-12T06:32:35.929Z,992.08
2017-12-12T06:33:16.302Z,992.11
2017-12-12T06:33:56.881Z,992.14
2017-12-12T06:34:37.395Z,992.11
2017-12-12T06:35:17.949Z,992.15
2017-12-12T06:35:58.395Z,992.22
2017-12-12T06:36:38.775Z,992.28
2017-12-12T06:37:19.276Z,992.24
2017-12-12T06:38:00.444Z,992.33
2017-12-12T06:38:42.522Z,992.32
2017-12-12T06:39:23.396Z,992.35
2017-12-12T06:40:03.832Z,992.4
2017-12-12T06:40:44.319Z,992.37
2017-12-12T06:41:24.579Z,992.37
2017-12-12T06:42:04.977Z,992.32
2017-12-12T06:42:45.999Z,992.48
2017-12-12T06:43:26.431Z,992.48
2017-12-12T06:44:06.809Z,992.49
2017-12-12T06:44:47.142Z,992.59
2017-12-12T06:45:27.567Z,992.56
2017-12-12T06:46:08.012Z,992.48
2017-12-12T06:46:48.522Z,992.55
2017-12-12T06:47:29.708Z,992.54
2017-12-12T06:48:09.728Z,992.57
2017-12-12T06:48:50.298Z,992.55
2017-12-12T06:49:31.701Z,992.49
2017-12-12T06:50:12.208Z,992.41
2017-12-12T06:50:52.526Z,992.51
2017-12-12T06:55:19.936Z,992.55
2017-12-12T06:56:01.749Z,992.68
2017-12-12T06:56:41.336Z,992.73
2017-12-12T06:57:21.948Z,992.66
2017-12-12T06:58:03.098Z,992.69
2017-12-12T06:58:43.426Z,992.7
2017-12-12T06:59:25.136Z,992.64
2017-12-12T07:00:05.164Z,992.7
2017-12-12T07:00:45.770Z,992.72
2017-12-12T07:01:27.095Z,992.66
2017-12-12T07:02:11.108Z,992.66
2017-12-12T07:02:51.925Z,992.71
2017-12-12T07:03:32.310Z,992.75
2017-12-12T07:04:13.071Z,992.79
2017-12-12T07:04:55.766Z,992.75
2017-12-12T07:05:38.141Z,992.79
2017-12-12T07:06:19.619Z,992.76
2017-12-12T07:07:00.769Z,992.78
2017-12-12T07:07:41.881Z,992.81
2017-12-12T07:08:22.276Z,992.81
2017-12-12T07:09:02.798Z,992.88
2017-12-12T07:09:43.178Z,992.91
2017-12-12T07:10:23.562Z,992.97
2017-12-12T07:11:04.032Z,992.95
2017-12-12T07:11:44.484Z,993.01
2017-12-12T07:12:24.878Z,993.03
2017-12-12T07:13:05.259Z,993.01
2017-12-12T07:13:45.769Z,993.03
2017-12-12T07:14:26.154Z,993.09
2017-12-12T07:15:06.470Z,993.1
2017-12-12T07:15:46.913Z,993.11
2017-12-12T07:16:32.188Z,993.09
2017-12-12T07:17:12.636Z,993.09
2017-12-12T07:17:53.176Z,993.13
2017-12-12T07:18:33.721Z,993.15
2017-12-12T07:19:14.074Z,993.24
2017-12-12T07:19:54.532Z,993.19
2017-12-12T07:20:34.904Z,993.34
2017-12-12T07:21:16.079Z,993.3
2017-12-12T07:21:57.041Z,993.22
2017-12-12T07:22:37.326Z,993.25
2017-12-12T07:23:18.180Z,993.33
2017-12-12T07:23:58.769Z,993.29
2017-12-12T07:24:39.225Z,993.37
2017-12-12T07:25:21.868Z,993.37
2017-12-12T07:26:02.458Z,993.39
2017-12-12T07:26:43.699Z,993.31
2017-12-12T07:27:24.615Z,993.3
2017-12-12T07:28:05.351Z,993.43
2017-12-12T07:28:45.754Z,993.45
2017-12-12T07:29:26.248Z,993.33
2017-12-12T07:30:06.777Z,993.42
2017-12-12T07:30:48.696Z,993.48
2017-12-12T07:31:29.113Z,993.56
2017-12-12T07:32:09.548Z,993.57
2017-12-12T10:48:32.904Z,997.76
2017-12-12T10:49:12.887Z,997.69
2017-12-12T10:49:53.417Z,997.89
2017-12-12T10:50:34.260Z,997.86
2017-12-12T10:51:14.711Z,997.81
2017-12-12T10:51:55.270Z,997.87
2017-12-12T10:52:35.779Z,997.87
2017-12-12T10:53:16.178Z,997.92
2017-12-12T10:53:56.632Z,997.91
2017-12-12T10:54:37.128Z,997.94
2017-12-12T10:55:17.650Z,998.01
2017-12-12T10:55:58.025Z,997.95
2017-12-12T10:56:38.468Z,997.9
2017-12-12T10:57:18.886Z,998.01
2017-12-12T10:57:59.436Z,997.98
2017-12-12T10:58:40.405Z,998
2017-12-12T10:59:20.928Z,997.95
2017-12-12T11:00:01.520Z,997.98
2017-12-12T11:00:42.451Z,997.99
2017-12-12T11:01:22.925Z,998.02
2017-12-12T11:02:03.772Z,997.99
2017-12-12T11:02:44.182Z,998.1
2017-12-12T11:03:24.584Z,998.04
2017-12-12T11:04:05.096Z,998.13
2017-12-12T11:04:45.629Z,998.16
2017-12-12T11:05:26.672Z,998.13
2017-12-12T11:06:07.537Z,998.13
2017-12-12T11:06:48.719Z,998.13
2017-12-12T11:07:28.724Z,998.14
2017-12-12T11:08:09.833Z,998.09
2017-12-12T11:08:51.338Z,998.13
2017-12-12T11:09:32.010Z,998.11
2017-12-12T11:10:12.943Z,998.1
2017-12-12T11:10:53.623Z,998.1
2017-12-12T11:11:35.288Z,998.12
2017-12-12T11:12:16.368Z,998.16
2017-12-12T11:12:57.647Z,998.11
2017-12-12T11:13:39.381Z,998.12
2017-12-12T11:14:20.042Z,998.19
2017-12-12T11:15:01.110Z,998.18
2017-12-12T11:15:41.976Z,998.19
2017-12-12T11:16:24.852Z,998.16
2017-12-12T11:17:05.574Z,998.19
2017-12-12T11:17:46.358Z,998.22
2017-12-12T11:18:27.448Z,998.23
2017-12-12T11:19:07.895Z,998.2
2017-12-12T11:19:48.988Z,998.2
2017-12-12T11:20:30.149Z,998.24
2017-12-12T11:21:11.030Z,998.22
2017-12-12T11:21:51.725Z,998.22
2017-12-12T11:22:32.367Z,998.23
2017-12-12T11:23:13.019Z,998.19
2017-12-12T11:23:53.534Z,998.27
2017-12-12T11:24:34.370Z,998.3
2017-12-12T11:25:15.958Z,998.24
2017-12-12T11:25:57.155Z,998.31
2017-12-12T11:26:38.040Z,998.3
2017-12-12T11:27:22.414Z,998.35
2017-12-12T11:28:01.797Z,998.36
2017-12-12T11:28:47.058Z,998.35
2017-12-12T11:32:38.447Z,998.34
2017-12-12T11:33:34.138Z,998.31
2017-12-12T11:34:43.680Z,998.31
2017-12-12T11:35:48.127Z,998.32
2017-12-12T11:36:48.753Z,998.34
2017-12-12T11:37:46.400Z,998.4
2017-12-12T11:38:41.934Z,998.45
2017-12-12T11:40:02.851Z,998.39
2017-12-12T11:43:35.738Z,998.51
2017-12-12T11:44:58.264Z,998.51
2017-12-12T11:47:14.223Z,998.51
2017-12-12T11:47:57.746Z,998.51
2017-12-12T11:48:40.125Z,998.56
2017-12-12T11:49:21.544Z,998.52
2017-12-12T11:50:02.323Z,998.52
2017-12-12T11:50:43.451Z,998.57
2017-12-12T11:53:10.387Z,998.62
2017-12-12T11:54:06.517Z,998.61
2017-12-12T11:54:59.990Z,998.61
2017-12-12T11:55:56.463Z,998.62
2017-12-12T11:56:51.902Z,998.77
2017-12-12T11:57:49.312Z,998.74
2017-12-12T11:58:43.796Z,998.79
2017-12-12T11:59:37.562Z,998.74
2017-12-12T12:00:30.638Z,998.8
2017-12-12T12:01:26.587Z,998.85
2017-12-12T12:02:24.465Z,998.8
2017-12-12T12:10:47.075Z,998.85
2017-12-12T12:11:29.679Z,998.97
2017-12-12T12:12:13.912Z,998.78
2017-12-12T12:12:53.331Z,998.89
2017-12-12T12:13:35.215Z,998.92
2017-12-12T12:14:15.200Z,998.97
2017-12-12T12:14:58.255Z,998.98
2017-12-12T12:15:39.082Z,998.96
2017-12-12T12:16:19.869Z,999
2017-12-12T12:17:01.348Z,999.08
2017-12-12T12:17:42.948Z,999.03
2017-12-12T12:18:23.941Z,999.08
2017-12-12T12:19:04.948Z,999.05
2017-12-12T12:19:47.776Z,999.12
2017-12-12T12:20:29.213Z,999.08
2017-12-12T12:21:11.083Z,999.1
2017-12-12T12:21:51.613Z,999.04
2017-12-12T12:22:34.517Z,999.04
2017-12-12T12:23:15.003Z,999.04
2017-12-12T12:23:57.470Z,999.08
2017-12-12T12:24:38.903Z,999.12
2017-12-12T12:25:19.549Z,999.05
2017-12-12T12:26:02.620Z,999.06
2017-12-12T12:26:43.680Z,999.08
2017-12-12T12:27:24.836Z,999.1
2017-12-12T12:28:06.280Z,999.05
2017-12-12T12:28:46.808Z,999.05
2017-12-12T12:29:29.861Z,999.06
2017-12-12T12:30:11.382Z,999.08
2017-12-12T12:30:51.974Z,999.12
2017-12-12T12:31:33.253Z,999.13
2017-12-12T12:32:14.489Z,999.08
2017-12-12T12:32:55.126Z,999.11
2017-12-12T12:33:36.103Z,999.12
2017-12-12T12:34:16.941Z,999.12
2017-12-12T12:34:57.419Z,999.14
2017-12-12T12:35:38.860Z,999.17
2017-12-12T12:36:19.964Z,999.16
2017-12-12T12:37:00.966Z,999.21
2017-12-12T12:37:41.049Z,999.12
2017-12-12T12:38:21.853Z,999.21
2017-12-12T12:39:02.905Z,999.2
2017-12-12T12:39:43.284Z,999.19
2017-12-12T12:40:24.159Z,999.17
2017-12-12T12:41:04.365Z,999.13
2017-12-12T12:41:45.030Z,999.19
2017-12-12T12:42:25.593Z,999.24
2017-12-12T12:43:08.344Z,999.22
2017-12-12T12:43:49.736Z,999.24
2017-12-12T12:44:29.672Z,999.18
2017-12-12T12:45:10.285Z,999.27
2017-12-12T12:45:51.577Z,999.26
2017-12-12T12:46:33.172Z,999.29
2017-12-12T12:47:14.049Z,999.24
2017-12-12T12:47:54.799Z,999.25
2017-12-12T12:48:38.508Z,999.24
2017-12-12T12:49:20.177Z,999.3
2017-12-12T12:50:00.261Z,999.32
2017-12-12T12:50:40.678Z,999.32
2017-12-12T12:51:21.006Z,999.31
2017-12-12T12:52:01.893Z,999.3
2017-12-12T12:52:42.430Z,999.32
2017-12-12T12:53:22.893Z,999.39
2017-12-12T12:54:03.932Z,999.34
2017-12-12T12:54:44.871Z,999.36
2017-12-12T12:55:25.535Z,999.34
2017-12-12T12:56:06.401Z,999.37
2017-12-12T12:56:47.023Z,999.41
2017-12-12T12:57:27.598Z,999.4
2017-12-12T12:58:08.035Z,999.41
2017-12-12T12:58:49.969Z,999.42
2017-12-12T12:59:31.594Z,999.46
2017-12-12T13:00:13.801Z,999.46
2017-12-12T13:00:55.677Z,999.47
2017-12-12T13:01:36.108Z,999.49
2017-12-12T13:02:18.101Z,999.45
2017-12-12T13:03:01.086Z,999.47
2017-12-12T13:03:42.838Z,999.47
2017-12-12T13:04:25.016Z,999.48
2017-12-12T13:05:06.396Z,999.45
2017-12-12T13:05:46.901Z,999.52
2017-12-12T13:06:27.354Z,999.49
2017-12-12T13:07:08.398Z,999.48
2017-12-12T13:07:49.579Z,999.52